Time;durP1;ratioP1;P1;durP2;ratioP2;P2;SDS_P1;SDS_P2;PMS_P1;PMS_P2;Temp;Humidity;BMP_temperature;BMP_pressure;BME280_temperature;BME280_humidity;BME280_pressure;Samples;Min_cycle;Max_cycle;Signal;HPM_P1;HPM_P2
2022/11/14 00:02:12;;;;;;;26.17;14.80;;;;;;;3.45;100.00;101722.84;5043277;28;20566;-73
2022/11/14 00:04:37;;;;;;;22.75;14.68;;;;;;;3.45;100.00;101701.19;5044911;28;20057;-74
2022/11/14 00:07:03;;;;;;;25.20;16.13;;;;;;;3.54;100.00;101700.41;5043697;28;20116;-73
2022/11/14 00:09:28;;;;;;;31.75;16.00;;;;;;;3.72;100.00;101694.25;5043823;28;21256;-74
2022/11/14 00:11:54;;;;;;;19.13;14.80;;;;;;;3.78;100.00;101696.44;5026381;28;20503;-73
2022/11/14 00:14:20;;;;;;;25.95;15.80;;;;;;;3.80;100.00;101697.16;5040879;28;20044;-74
2022/11/14 00:16:46;;;;;;;24.58;16.67;;;;;;;3.75;100.00;101699.38;5046706;28;20475;-74
2022/11/14 00:19:12;;;;;;;23.77;16.15;;;;;;;3.66;100.00;101711.03;5026903;28;20392;-74
2022/11/14 00:21:37;;;;;;;22.13;14.30;;;;;;;3.59;100.00;101698.16;5039674;28;20037;-73
2022/11/14 00:24:03;;;;;;;22.50;14.60;;;;;;;3.72;100.00;101699.69;5045987;28;20036;-74
2022/11/14 00:26:28;;;;;;;26.27;15.75;;;;;;;3.78;100.00;101692.84;5048087;28;20029;-74
2022/11/14 00:28:54;;;;;;;19.55;13.80;;;;;;;3.74;100.00;101696.84;5042555;28;20079;-74
2022/11/14 00:31:20;;;;;;;21.70;14.65;;;;;;;3.84;100.00;101695.91;5047835;28;20083;-74
2022/11/14 00:33:45;;;;;;;22.73;14.77;;;;;;;3.85;100.00;101694.06;5045864;28;20043;-73
2022/11/14 00:36:11;;;;;;;21.58;14.38;;;;;;;3.80;100.00;101682.75;5027769;28;20116;-74
2022/11/14 00:38:36;;;;;;;19.30;14.02;;;;;;;3.80;100.00;101685.47;5049127;28;20480;-73
2022/11/14 00:41:02;;;;;;;23.20;14.80;;;;;;;3.86;100.00;101679.50;5044923;28;20100;-73
2022/11/14 00:43:27;;;;;;;20.98;15.05;;;;;;;3.89;100.00;101679.22;5046886;28;20041;-74
2022/11/14 00:45:52;;;;;;;25.35;15.18;;;;;;;3.92;100.00;101677.13;5028096;28;20040;-74
2022/11/14 00:48:17;;;;;;;23.08;14.60;;;;;;;3.91;100.00;101679.97;5047814;28;20029;-73
2022/11/14 00:50:43;;;;;;;21.17;15.02;;;;;;;4.05;100.00;101676.88;5026734;28;20036;-74
2022/11/14 00:53:09;;;;;;;22.45;14.63;;;;;;;4.08;100.00;101674.78;5045066;28;20037;-74
2022/11/14 00:55:34;;;;;;;20.73;14.85;;;;;;;4.15;100.00;101670.53;5044148;28;20037;-73
2022/11/14 00:57:59;;;;;;;24.45;14.43;;;;;;;4.29;100.00;101670.16;5042531;28;20025;-73
2022/11/14 01:00:25;;;;;;;25.88;14.95;;;;;;;4.26;100.00;101666.84;5042396;28;20037;-73
2022/11/14 01:02:50;;;;;;;27.52;16.25;;;;;;;4.31;100.00;101662.75;5028055;28;20514;-73
2022/11/14 01:05:15;;;;;;;21.80;16.40;;;;;;;4.48;100.00;101661.25;5029907;28;20033;-73
2022/11/14 01:07:41;;;;;;;28.35;14.98;;;;;;;4.45;100.00;101656.06;5013639;28;20040;-73
2022/11/14 01:10:07;;;;;;;22.55;16.63;;;;;;;4.57;100.00;101660.38;5043469;28;20033;-73
2022/11/14 01:12:33;;;;;;;24.27;16.30;;;;;;;4.61;100.00;101648.28;5028635;28;20041;-73
2022/11/14 01:14:58;;;;;;;20.00;14.30;;;;;;;4.59;100.00;101640.25;5045473;28;20131;-73
2022/11/14 01:17:25;;;;;;;22.17;15.55;;;;;;;4.63;100.00;101641.72;5042288;28;20059;-73
2022/11/14 01:19:51;;;;;;;24.65;16.48;;;;;;;4.65;100.00;101628.84;5044725;28;20025;-72
2022/11/14 01:22:16;;;;;;;22.33;14.80;;;;;;;4.67;100.00;101629.59;5043788;28;20374;-72
2022/11/14 01:24:41;;;;;;;22.85;15.02;;;;;;;4.70;100.00;101637.44;5047043;28;20025;-72
2022/11/14 01:27:07;;;;;;;19.85;15.00;;;;;;;4.78;100.00;101632.16;5044280;28;20027;-72
2022/11/14 01:29:32;;;;;;;22.08;14.43;;;;;;;4.80;100.00;101626.59;5048194;28;20103;-72
2022/11/14 01:31:57;;;;;;;20.83;14.73;;;;;;;4.77;100.00;101629.59;5028399;28;20036;-72
2022/11/14 01:34:23;;;;;;;21.98;15.40;;;;;;;4.77;100.00;101621.44;5043492;28;20029;-72
2022/11/14 01:36:48;;;;;;;18.42;12.93;;;;;;;4.69;100.00;101615.84;5026051;28;20850;-72
2022/11/14 01:39:13;;;;;;;21.42;15.30;;;;;;;4.72;100.00;101626.44;5024686;28;20031;-72
2022/11/14 01:41:39;;;;;;;21.33;14.32;;;;;;;4.72;100.00;101605.59;5049063;28;20021;-72
2022/11/14 01:44:36;;;;;;;19.88;13.70;;;;;;;4.70;100.00;101607.56;5047085;28;20036;-72
2022/11/14 01:47:02;;;;;;;20.52;13.30;;;;;;;4.73;100.00;101604.59;5042565;28;20033;-72
2022/11/14 01:49:36;;;;;;;16.92;13.25;;;;;;;4.79;100.00;101605.88;5047087;28;20031;-73
2022/11/14 01:52:05;;;;;;;21.13;13.90;;;;;;;4.79;100.00;101601.31;5046772;28;20024;-73
2022/11/14 01:54:38;;;;;;;18.85;12.35;;;;;;;4.71;100.00;101597.59;5029416;28;20493;-73
2022/11/14 01:57:05;;;;;;;17.73;12.77;;;;;;;4.70;100.00;101590.47;5044738;28;20104;-73
2022/11/14 01:59:34;;;;;;;22.95;13.13;;;;;;;4.78;100.00;101588.75;5046184;28;20033;-73
2022/11/14 02:02:06;;;;;;;18.60;12.88;;;;;;;4.75;100.00;101572.75;5046028;28;20399;-73
2022/11/14 02:04:40;;;;;;;16.42;12.65;;;;;;;4.71;100.00;101568.59;5043748;28;20396;-73
2022/11/14 02:07:06;;;;;;;19.15;12.65;;;;;;;4.71;100.00;101579.44;5029091;28;20118;-73
2022/11/14 02:09:36;;;;;;;19.48;13.00;;;;;;;4.75;100.00;101583.59;5048581;28;20040;-73
2022/11/14 02:12:06;;;;;;;17.60;13.30;;;;;;;4.72;100.00;101580.31;5042038;28;20040;-73
2022/11/14 02:14:33;;;;;;;16.20;12.18;;;;;;;4.67;100.00;101577.16;5047241;28;20489;-73
2022/11/14 02:16:58;;;;;;;17.00;12.88;;;;;;;4.57;100.00;101574.44;5024256;28;20068;-73
2022/11/14 02:19:24;;;;;;;17.67;12.80;;;;;;;4.40;100.00;101566.13;5043865;28;20030;-72
2022/11/14 02:21:49;;;;;;;16.67;12.80;;;;;;;4.39;100.00;101564.44;5043985;28;20035;-73
2022/11/14 02:24:14;;;;;;;15.82;12.15;;;;;;;4.44;100.00;101562.16;5045328;28;20029;-73
2022/11/14 02:26:41;;;;;;;17.95;11.85;;;;;;;4.51;100.00;101563.28;5028626;28;20025;-73
2022/11/14 02:29:08;;;;;;;16.88;12.25;;;;;;;4.45;100.00;101570.16;5043967;28;20029;-73
2022/11/14 02:31:34;;;;;;;;;;;;;;;4.36;100.00;101560.16;5045104;28;20026;-73
2022/11/14 02:33:59;;;;;;;20.05;12.48;;;;;;;4.30;100.00;101560.72;5041683;28;19921;-72
2022/11/14 02:36:25;;;;;;;18.58;11.93;;;;;;;4.29;100.00;101560.84;5043678;28;20041;-72
2022/11/14 02:38:50;;;;;;;18.73;11.80;;;;;;;4.22;100.00;101546.13;5028373;28;20032;-72
2022/11/14 02:41:15;;;;;;;17.70;12.73;;;;;;;4.26;100.00;101545.72;5043259;28;20036;-72
2022/11/14 02:43:41;;;;;;;15.45;11.18;;;;;;;4.19;100.00;101543.69;5041199;28;20033;-73
2022/11/14 02:46:06;;;;;;;17.17;11.73;;;;;;;4.20;100.00;101539.97;5040114;28;20029;-72
2022/11/14 02:48:31;;;;;;;18.35;12.32;;;;;;;4.13;100.00;101538.84;5038248;28;20025;-72
2022/11/14 02:50:57;;;;;;;15.77;11.02;;;;;;;4.05;100.00;101527.81;5041631;28;20048;-72
2022/11/14 02:53:22;;;;;;;15.70;11.68;;;;;;;3.97;100.00;101535.78;5025247;28;20065;-73
2022/11/14 02:55:47;;;;;;;17.75;12.45;;;;;;;3.98;100.00;101532.09;5045317;28;20035;-73
2022/11/14 02:58:13;;;;;;;17.40;12.23;;;;;;;4.10;100.00;101529.13;5039819;28;20041;-72
2022/11/14 03:00:38;;;;;;;17.13;12.73;;;;;;;4.13;100.00;101534.28;5042408;28;20494;-72
2022/11/14 03:03:03;;;;;;;17.70;12.25;;;;;;;4.14;100.00;101527.00;5039714;28;20063;-72
2022/11/14 03:05:28;;;;;;;18.52;13.45;;;;;;;4.23;100.00;101524.28;5037245;28;20439;-72
2022/11/14 03:07:54;;;;;;;19.75;13.35;;;;;;;4.37;100.00;101523.88;5027779;28;20037;-73
2022/11/14 03:10:21;;;;;;;19.77;12.45;;;;;;;4.41;100.00;101519.03;5041279;28;20021;-73
2022/11/14 03:12:46;;;;;;;18.58;13.73;;;;;;;4.34;100.00;101512.47;5041401;28;20473;-72
2022/11/14 03:15:12;;;;;;;19.52;13.23;;;;;;;4.36;100.00;101513.19;5043888;28;20033;-72
2022/11/14 03:17:37;;;;;;;17.27;13.35;;;;;;;4.36;100.00;101511.34;5046809;28;20033;-72
2022/11/14 03:20:04;;;;;;;18.45;12.27;;;;;;;4.24;100.00;101506.19;5043603;28;20075;-72
2022/11/14 03:22:29;;;;;;;19.40;12.73;;;;;;;4.27;100.00;101503.19;5039702;28;20036;-73
2022/11/14 03:24:55;;;;;;;16.92;12.70;;;;;;;4.28;100.00;101497.59;5041663;28;20033;-73
2022/11/14 03:27:20;;;;;;;19.90;13.30;;;;;;;4.35;100.00;101498.78;5027488;28;20032;-72
2022/11/14 03:29:47;;;;;;;19.42;13.13;;;;;;;4.35;100.00;101498.78;5044873;28;20391;-72
2022/11/14 03:32:12;;;;;;;20.60;13.43;;;;;;;4.28;100.00;101492.19;5043161;28;20067;-72
2022/11/14 03:34:37;;;;;;;17.73;13.32;;;;;;;4.31;100.00;101496.47;5040166;28;20472;-74
2022/11/14 03:37:03;;;;;;;20.00;13.32;;;;;;;4.26;100.00;101486.06;5044225;28;20128;-72
2022/11/14 03:39:28;;;;;;;20.25;13.25;;;;;;;4.23;100.00;101499.03;5041499;28;20068;-73
2022/11/14 03:41:54;;;;;;;16.58;12.70;;;;;;;4.19;100.00;101492.19;5046058;28;20413;-72
2022/11/14 03:44:19;;;;;;;18.33;13.90;;;;;;;4.17;100.00;101499.63;5043525;28;20460;-72
2022/11/14 03:46:44;;;;;;;19.88;13.25;;;;;;;4.15;100.00;101497.03;5041584;28;20032;-72
2022/11/14 03:49:09;;;;;;;21.38;14.50;;;;;;;4.18;100.00;101501.31;5042287;28;20094;-72
2022/11/14 03:51:35;;;;;;;19.60;14.02;;;;;;;4.15;100.00;101488.03;5040346;28;20131;-72
2022/11/14 03:54:00;;;;;;;22.17;14.70;;;;;;;4.08;100.00;101492.31;5026600;28;20083;-72
2022/11/14 03:56:26;;;;;;;23.38;13.77;;;;;;;4.06;100.00;101494.31;5026138;28;20136;-72
2022/11/14 03:58:51;;;;;;;22.85;14.27;;;;;;;4.05;100.00;101495.28;5025623;28;20035;-72
2022/11/14 04:01:16;;;;;;;20.02;14.10;;;;;;;4.06;100.00;101494.31;5049783;28;20028;-72
2022/11/14 04:03:41;;;;;;;19.85;14.32;;;;;;;4.04;100.00;101488.16;5044506;28;20041;-72
2022/11/14 04:06:07;;;;;;;20.33;13.07;;;;;;;3.97;100.00;101487.00;5047215;28;20032;-72
2022/11/14 04:08:32;;;;;;;19.73;14.02;;;;;;;3.95;100.00;101489.84;5045160;28;20025;-72
2022/11/14 04:10:58;;;;;;;21.15;13.93;;;;;;;3.91;100.00;101490.28;5043907;28;20033;-72
2022/11/14 04:13:23;;;;;;;21.50;15.73;;;;;;;3.90;100.00;101496.72;5030982;28;20032;-72
2022/11/14 04:15:55;;;;;;;21.33;14.27;;;;;;;3.89;100.00;101476.88;5045436;28;20021;-72
2022/11/14 04:18:21;;;;;;;24.88;15.68;;;;;;;3.86;100.00;101485.25;5050268;28;20056;-72
2022/11/14 04:20:47;;;;;;;24.80;16.02;;;;;;;3.82;100.00;101478.44;5045300;28;20037;-72
2022/11/14 04:23:12;;;;;;;25.00;16.05;;;;;;;3.83;100.00;101473.84;5027526;28;20025;-72
2022/11/14 04:25:37;;;;;;;29.80;15.93;;;;;;;3.82;100.00;101474.84;5042210;28;20400;-72
2022/11/14 04:28:03;;;;;;;21.65;16.00;;;;;;;3.82;100.00;101473.00;5030544;28;20028;-72
2022/11/14 04:30:28;;;;;;;23.73;15.57;;;;;;;3.78;100.00;101474.28;5045757;28;20033;-72
2022/11/14 04:32:53;;;;;;;23.92;14.93;;;;;;;3.74;100.00;101474.72;5045481;28;20025;-72
2022/11/14 04:35:18;;;;;;;24.85;15.40;;;;;;;3.65;100.00;101475.53;5041844;28;20060;-72
2022/11/14 04:37:44;;;;;;;25.58;16.08;;;;;;;3.67;100.00;101459.97;5043774;28;20025;-72
2022/11/14 04:40:10;;;;;;;21.65;14.68;;;;;;;3.67;100.00;101458.16;5044616;28;20025;-72
2022/11/14 04:42:35;;;;;;;22.38;15.57;;;;;;;3.69;100.00;101449.88;5049053;28;20108;-72
2022/11/14 04:45:01;;;;;;;22.30;14.68;;;;;;;3.69;100.00;101447.19;5047590;28;20029;-72
2022/11/14 04:47:26;;;;;;;21.40;15.23;;;;;;;3.57;100.00;101449.13;5025947;28;20442;-72
2022/11/14 04:49:51;;;;;;;25.65;15.18;;;;;;;3.55;100.00;101440.28;5046942;28;20509;-72
2022/11/14 04:52:16;;;;;;;25.95;15.88;;;;;;;3.52;100.00;101439.72;5027200;28;20384;-72
2022/11/14 04:54:42;;;;;;;21.85;15.55;;;;;;;3.49;100.00;101443.56;5046627;28;20032;-72
2022/11/14 04:57:07;;;;;;;24.75;15.07;;;;;;;3.42;100.00;101441.53;5047022;28;20017;-72
2022/11/14 04:59:32;;;;;;;20.98;14.93;;;;;;;3.33;100.00;101442.34;5047603;28;20046;-72
2022/11/14 05:01:58;;;;;;;23.23;15.57;;;;;;;3.33;100.00;101445.06;5045295;28;20033;-72
2022/11/14 05:04:23;;;;;;;23.98;15.85;;;;;;;3.28;100.00;101441.91;5028884;28;20441;-72
2022/11/14 05:06:48;;;;;;;23.35;15.23;;;;;;;3.33;100.00;101442.34;5047029;28;20025;-72
2022/11/14 05:09:14;;;;;;;20.45;14.60;;;;;;;3.26;100.00;101443.91;5045266;28;20025;-73
2022/11/14 05:11:39;;;;;;;25.60;17.17;;;;;;;3.25;100.00;101428.63;5025917;28;20036;-72
2022/11/14 05:14:04;;;;;;;22.98;16.08;;;;;;;3.26;100.00;101436.59;5047882;28;20039;-72
2022/11/14 05:16:29;;;;;;;22.15;14.75;;;;;;;3.21;100.00;101422.63;5045258;28;20029;-72
2022/11/14 05:18:55;;;;;;;22.77;15.60;;;;;;;3.19;100.00;101421.06;5029518;28;20032;-72
2022/11/14 05:21:20;;;;;;;25.15;15.82;;;;;;;3.19;100.00;101421.06;5029701;28;20025;-72
2022/11/14 05:23:45;;;;;;;23.73;15.07;;;;;;;3.22;100.00;101407.25;5044029;28;20472;-72
2022/11/14 05:26:15;;;;;;;26.70;14.55;;;;;;;3.15;100.00;101419.63;5030577;28;20112;-72
2022/11/14 05:28:40;;;;;;;20.27;14.70;;;;;;;3.13;100.00;101411.66;5043826;28;20753;-72
2022/11/14 05:31:08;;;;;;;24.20;14.50;;;;;;;3.08;100.00;101416.59;5048423;28;20048;-72
2022/11/14 05:33:34;;;;;;;22.40;14.45;;;;;;;3.06;100.00;101421.28;5046172;28;20044;-74
2022/11/14 05:36:05;;;;;;;26.33;15.40;;;;;;;3.09;100.00;101417.44;5046237;28;20452;-73
2022/11/14 05:38:30;;;;;;;23.95;15.05;;;;;;;3.08;100.00;101405.78;5029708;28;20492;-72
2022/11/14 05:40:56;;;;;;;27.13;14.70;;;;;;;3.04;100.00;101415.16;5048937;28;20114;-72
2022/11/14 05:43:21;;;;;;;23.65;15.20;;;;;;;3.07;100.00;101404.06;5047192;28;20029;-73
2022/11/14 05:45:46;;;;;;;22.63;14.68;;;;;;;3.03;100.00;101410.75;5045980;28;20037;-73
2022/11/14 05:48:11;;;;;;;23.70;14.88;;;;;;;3.05;100.00;101413.31;5047698;28;20076;-73
2022/11/14 05:50:37;;;;;;;22.27;15.00;;;;;;;3.02;100.00;101410.88;5027574;28;20532;-73
2022/11/14 05:53:03;;;;;;;29.25;14.65;;;;;;;3.02;100.00;101417.16;5030067;28;20056;-73
2022/11/14 05:55:28;;;;;;;22.48;15.15;;;;;;;3.07;100.00;101420.31;5049300;28;20068;-73
2022/11/14 05:57:57;;;;;;;22.48;14.30;;;;;;;3.08;100.00;101413.91;5044034;28;20021;-73
2022/11/14 06:00:23;;;;;;;22.63;14.50;;;;;;;3.05;100.00;101418.72;5042678;28;20033;-73
2022/11/14 06:02:52;;;;;;;23.48;15.40;;;;;;;3.08;100.00;101421.16;5041894;28;20075;-73
2022/11/14 06:05:17;;;;;;;26.27;15.32;;;;;;;3.07;100.00;101416.72;5026051;28;20025;-73
2022/11/14 06:07:43;;;;;;;19.80;14.23;;;;;;;3.09;100.00;101417.44;5024842;28;20535;-73
2022/11/14 06:10:08;;;;;;;26.25;14.30;;;;;;;3.02;100.00;101413.56;5044869;28;20016;-73
2022/11/14 06:12:34;;;;;;;19.60;14.45;;;;;;;3.05;100.00;101413.31;5044586;28;20029;-73
2022/11/14 06:14:59;;;;;;;21.80;14.02;;;;;;;2.99;100.00;101405.75;5044417;28;20081;-74
2022/11/14 06:17:24;;;;;;;26.45;14.45;;;;;;;3.00;100.00;101402.88;5046860;28;20056;-72
2022/11/14 06:19:49;;;;;;;22.02;15.30;;;;;;;3.04;100.00;101411.63;5045430;28;20025;-72
2022/11/14 06:22:15;;;;;;;28.70;15.20;;;;;;;3.02;100.00;101408.16;5042966;28;20836;-72
2022/11/14 06:24:40;;;;;;;26.40;14.55;;;;;;;3.09;100.00;101415.59;5048929;28;20041;-72
2022/11/14 06:27:05;;;;;;;19.95;14.15;;;;;;;2.97;100.00;101414.00;5040569;28;20443;-73
2022/11/14 06:29:31;;;;;;;24.70;14.15;;;;;;;2.91;100.00;101414.53;5044356;28;20480;-73
2022/11/14 06:31:56;;;;;;;24.10;15.15;;;;;;;2.85;100.00;101420.50;5047551;28;20028;-73
2022/11/14 06:34:21;;;;;;;23.05;14.32;;;;;;;2.84;100.00;101420.63;5044425;28;20071;-73
2022/11/14 06:36:46;;;;;;;25.15;13.70;;;;;;;2.81;100.00;101424.44;5046629;28;20057;-72
2022/11/14 06:39:12;;;;;;;24.58;13.70;;;;;;;2.79;100.00;101420.16;5046008;28;20037;-73
2022/11/14 06:41:37;;;;;;;24.45;15.50;;;;;;;2.80;100.00;101422.72;5045101;28;20112;-73
2022/11/14 06:44:02;;;;;;;19.92;14.32;;;;;;;2.78;100.00;101421.16;5038243;28;20560;-73
2022/11/14 06:46:28;;;;;;;24.08;13.18;;;;;;;2.76;100.00;101426.69;5043957;28;20025;-73
2022/11/14 06:48:53;;;;;;;24.33;14.50;;;;;;;2.79;100.00;101428.28;5040896;28;20113;-73
2022/11/14 06:51:18;;;;;;;22.13;13.73;;;;;;;2.69;100.00;101428.22;5045305;28;20040;-73
2022/11/14 06:53:44;;;;;;;25.85;13.63;;;;;;;2.72;100.00;101427.09;5045000;28;20033;-73
2022/11/14 06:56:13;;;;;;;19.73;13.00;;;;;;;2.69;100.00;101427.34;5045633;28;20030;-73
2022/11/14 06:58:41;;;;;;;21.63;13.35;;;;;;;2.70;100.00;101426.34;5024338;28;20028;-73
2022/11/14 07:01:12;;;;;;;24.23;12.95;;;;;;;2.73;100.00;101423.41;5040277;28;20362;-72
2022/11/14 07:03:37;;;;;;;22.88;13.48;;;;;;;2.72;100.00;101429.81;5044468;28;20028;-72
2022/11/14 07:06:04;;;;;;;21.67;12.45;;;;;;;2.76;100.00;101421.28;5043357;28;20552;-72
2022/11/14 07:08:30;;;;;;;21.30;13.23;;;;;;;2.69;100.00;101419.25;5029727;28;20055;-72
2022/11/14 07:11:10;;;;;;;22.02;12.38;;;;;;;2.72;100.00;101419.81;5043491;28;20033;-73
2022/11/14 07:13:37;;;;;;;21.40;12.90;;;;;;;2.78;100.00;101415.75;5035421;28;20037;-72
2022/11/14 07:16:03;;;;;;;21.60;13.00;;;;;;;2.75;100.00;101414.16;5038886;28;20047;-73
2022/11/14 07:18:30;;;;;;;20.73;13.70;;;;;;;2.74;100.00;101415.13;5041873;28;20403;-72
2022/11/14 07:21:00;;;;;;;20.67;12.73;;;;;;;2.71;100.00;101410.00;5042519;28;20518;-73
2022/11/14 07:23:26;;;;;;;20.23;11.88;;;;;;;2.70;100.00;101405.59;5023486;28;20037;-72
2022/11/14 07:25:51;;;;;;;18.15;12.20;;;;;;;2.76;100.00;101412.28;5043361;28;20028;-73
2022/11/14 07:28:17;;;;;;;19.17;12.27;;;;;;;2.70;100.00;101410.13;5043613;28;20039;-72
2022/11/14 07:30:42;;;;;;;19.67;12.10;;;;;;;2.67;100.00;101402.31;5042692;28;20026;-73
2022/11/14 07:33:07;;;;;;;17.80;11.85;;;;;;;2.63;100.00;101400.84;5043099;28;20381;-73
2022/11/14 07:35:33;;;;;;;18.75;11.90;;;;;;;2.60;100.00;101401.09;5044619;28;20029;-73
2022/11/14 07:38:02;;;;;;;17.02;11.30;;;;;;;2.52;100.00;101396.34;5026495;28;20040;-73
2022/11/14 07:40:28;;;;;;;18.60;11.82;;;;;;;2.55;100.00;101395.22;5043425;28;20396;-73
2022/11/14 07:42:58;;;;;;;29.98;11.88;;;;;;;2.60;100.00;101398.41;5025347;28;20033;-73
2022/11/14 07:45:24;;;;;;;14.48;10.30;;;;;;;2.56;100.00;101396.97;5041789;28;20032;-73
2022/11/14 07:47:53;;;;;;;19.70;11.18;;;;;;;2.60;100.00;101395.69;5046148;28;20032;-72
2022/11/14 07:50:19;;;;;;;19.73;11.32;;;;;;;2.63;100.00;101392.72;5046747;28;20025;-73
2022/11/14 07:52:49;;;;;;;25.27;12.15;;;;;;;2.69;100.00;101398.47;5031875;28;20036;-73
2022/11/14 07:55:14;;;;;;;23.17;11.82;;;;;;;2.84;100.00;101396.28;5030110;28;20175;-73
2022/11/14 07:57:40;;;;;;;20.35;12.02;;;;;;;2.86;100.00;101389.75;5033964;28;20057;-73
2022/11/14 08:00:06;;;;;;;20.95;11.75;;;;;;;2.92;100.00;101391.03;5044238;28;20029;-73
2022/11/14 08:02:31;;;;;;;17.65;11.73;;;;;;;3.09;100.00;101379.56;5045409;28;20108;-73
2022/11/14 08:04:56;;;;;;;19.55;11.82;;;;;;;3.19;100.00;101377.75;5045502;28;20033;-73
2022/11/14 08:07:21;;;;;;;15.10;11.90;;;;;;;3.26;100.00;101387.06;5050290;28;20462;-73
2022/11/14 08:09:47;;;;;;;16.38;11.02;;;;;;;3.27;100.00;101386.06;5047672;28;20032;-73
2022/11/14 08:12:12;;;;;;;18.42;11.70;;;;;;;3.31;100.00;101390.22;5041789;28;20044;-73
2022/11/14 08:14:37;;;;;;;27.95;11.90;;;;;;;3.37;100.00;101384.25;5037348;28;20064;-73
2022/11/14 08:17:02;;;;;;;22.58;11.60;;;;;;;3.44;100.00;101390.81;5024043;28;20497;-73
2022/11/14 08:19:28;;;;;;;25.92;12.30;;;;;;;3.49;100.00;101388.53;5045189;28;20375;-73
2022/11/14 08:21:53;;;;;;;20.73;12.43;;;;;;;3.60;100.00;101383.88;5043898;28;20032;-73
2022/11/14 08:24:18;;;;;;;18.60;12.15;;;;;;;3.73;100.00;101389.00;5046322;28;20029;-73
2022/11/14 08:26:44;;;;;;;17.85;11.88;;;;;;;3.76;100.00;101388.72;5046912;28;20027;-74
2022/11/14 08:29:09;;;;;;;17.92;12.02;;;;;;;3.83;100.00;101388.03;5045200;28;20035;-73
2022/11/14 08:31:34;;;;;;;19.67;12.57;;;;;;;3.85;100.00;101385.19;5042511;28;20051;-73
2022/11/14 08:33:59;;;;;;;19.70;11.93;;;;;;;3.90;100.00;101382.91;5043736;28;20028;-73
2022/11/14 08:36:25;;;;;;;17.58;12.88;;;;;;;3.96;100.00;101379.63;5043547;28;20037;-73
2022/11/14 08:38:50;;;;;;;19.92;11.80;;;;;;;3.95;100.00;101376.03;5045566;28;20491;-73
2022/11/14 08:41:15;;;;;;;21.73;12.23;;;;;;;4.07;100.00;101358.63;5043785;28;20029;-73
2022/11/14 08:43:41;;;;;;;22.83;12.35;;;;;;;4.07;100.00;101365.94;5042303;28;20546;-73
2022/11/14 08:46:06;;;;;;;21.05;12.20;;;;;;;4.08;100.00;101354.94;5019894;28;20048;-73
2022/11/14 08:48:32;;;;;;;22.63;11.20;;;;;;;4.15;100.00;101357.91;5043875;28;20028;-74
2022/11/14 08:51:01;;;;;;;19.92;13.13;;;;;;;4.18;100.00;101350.34;5043916;28;20099;-73
2022/11/14 08:53:27;;;;;;;20.75;12.27;;;;;;;4.27;100.00;101348.66;5044506;28;20098;-73
2022/11/14 08:55:52;;;;;;;19.50;12.98;;;;;;;4.38;100.00;101346.63;5040762;28;20477;-73
2022/11/14 08:58:17;;;;;;;21.15;12.25;;;;;;;4.37;100.00;101334.06;5045091;28;20021;-73
2022/11/14 09:00:43;;;;;;;21.08;12.55;;;;;;;4.47;100.00;101336.75;5043668;28;20192;-73
2022/11/14 09:03:09;;;;;;;20.25;12.27;;;;;;;4.50;100.00;101339.19;5029420;28;20376;-73
2022/11/14 09:05:35;;;;;;;21.50;11.90;;;;;;;4.54;100.00;101327.03;5027489;28;20214;-73
2022/11/14 09:08:01;;;;;;;21.03;11.83;;;;;;;4.61;100.00;101320.88;5029678;28;20029;-73
2022/11/14 09:10:26;;;;;;;18.60;12.15;;;;;;;4.65;100.00;101324.16;5044045;28;20707;-74
2022/11/14 09:12:59;;;;;;;19.98;11.43;;;;;;;4.68;100.00;101329.28;5046583;28;20451;-73
2022/11/14 09:15:26;;;;;;;16.65;12.48;;;;;;;4.84;100.00;101326.78;5021130;28;20037;-73
2022/11/14 09:17:55;;;;;;;18.10;11.20;;;;;;;4.96;100.00;101323.72;5044048;28;20438;-73
2022/11/14 09:20:25;;;;;;;19.02;12.75;;;;;;;5.07;100.00;101328.13;5043147;28;20041;-73
2022/11/14 09:22:53;;;;;;;19.13;12.55;;;;;;;5.14;100.00;101327.34;5037475;28;20111;-73
2022/11/14 09:25:20;;;;;;;19.88;12.25;;;;;;;5.36;99.66;101331.53;5042710;28;20024;-73
2022/11/14 09:27:46;;;;;;;20.02;12.50;;;;;;;5.37;99.61;101331.38;5021933;28;20032;-73
2022/11/14 09:30:12;;;;;;;16.13;10.77;;;;;;;5.44;99.55;101320.78;5038671;28;20090;-73
2022/11/14 09:32:37;;;;;;;19.27;12.10;;;;;;;5.67;99.09;101327.47;5040353;28;20585;-73
2022/11/14 09:35:03;;;;;;;21.60;13.25;;;;;;;5.79;99.02;101329.81;5041003;28;20120;-73
2022/11/14 09:37:28;;;;;;;16.33;11.27;;;;;;;5.87;98.07;101320.91;5043503;28;20029;-73
2022/11/14 09:39:54;;;;;;;23.08;12.65;;;;;;;5.96;97.80;101323.53;5038222;28;20029;-73
2022/11/14 09:42:34;;;;;;;18.42;11.95;;;;;;;6.12;97.38;101328.25;5035797;28;20021;-73
2022/11/14 09:45:02;;;;;;;21.50;12.38;;;;;;;6.21;96.71;101328.19;5032788;28;20818;-73
2022/11/14 09:47:43;;;;;;;17.05;11.80;;;;;;;6.49;95.40;101318.88;5041913;28;20021;-73
2022/11/14 09:50:15;;;;;;;19.73;11.75;;;;;;;6.57;95.16;101323.50;5018923;28;20052;-73
2022/11/14 09:52:46;;;;;;;13.50;10.85;;;;;;;6.76;93.93;101313.25;5046638;28;20422;-73
2022/11/14 09:55:21;;;;;;;22.63;11.95;;;;;;;6.88;93.23;101311.13;5046229;28;20035;-73
2022/11/14 09:57:46;;;;;;;22.48;11.68;;;;;;;6.94;93.50;101308.56;5040318;28;20072;-73
2022/11/14 10:00:21;;;;;;;16.90;11.13;;;;;;;7.15;92.60;101306.28;5042642;28;20490;-73
2022/11/14 10:03:13;;;;;;;21.60;11.77;;;;;;;7.26;92.58;101306.00;5044076;28;20103;-74
2022/11/14 10:05:53;;;;;;;16.20;11.15;;;;;;;7.36;92.42;101293.09;5042490;28;20041;-73
2022/11/14 10:08:52;;;;;;;19.05;12.25;;;;;;;7.48;92.13;101293.63;5023746;28;20468;-73
2022/11/14 10:11:41;;;;;;;22.15;10.85;;;;;;;7.62;91.24;101292.97;5041811;28;20033;-73
2022/11/14 10:14:32;;;;;;;20.92;11.55;;;;;;;7.66;90.61;101299.81;5039739;28;20061;-73
2022/11/14 10:17:06;;;;;;;18.00;11.38;;;;;;;7.84;90.06;101301.38;5035663;28;20657;-73
2022/11/14 10:19:48;;;;;;;21.02;11.77;;;;;;;7.98;90.01;101302.56;5043998;28;20033;-71
2022/11/14 10:22:33;;;;;;;18.23;11.23;;;;;;;8.10;88.06;101299.34;5022854;28;20025;-71
2022/11/14 10:25:23;;;;;;;20.23;10.75;;;;;;;8.18;89.21;101290.31;5041503;28;20044;-71
2022/11/14 10:27:58;;;;;;;21.15;12.13;;;;;;;8.15;88.30;101298.81;5044071;28;20119;-71
2022/11/14 10:30:34;;;;;;;18.30;10.75;;;;;;;8.19;87.62;101289.28;5037023;28;20025;-71
2022/11/14 10:33:07;;;;;;;17.90;10.82;;;;;;;8.22;87.25;101283.53;5039068;28;20064;-71
2022/11/14 10:35:40;;;;;;;18.95;10.68;;;;;;;8.17;87.22;101283.16;5039440;28;20061;-71
2022/11/14 10:38:05;;;;;;;15.85;11.35;;;;;;;8.29;87.22;101279.94;5041438;28;20028;-73
2022/11/14 10:40:46;;;;;;;17.23;10.90;;;;;;;8.28;87.68;101267.28;5042653;28;20048;-73
2022/11/14 10:43:29;;;;;;;13.00;10.18;;;;;;;8.52;87.65;101274.59;5042334;28;20491;-73
2022/11/14 10:46:38;;;;;;;20.67;11.55;;;;;;;8.42;86.34;101274.78;5038343;28;20040;-73
2022/11/14 10:49:15;;;;;;;15.48;11.02;;;;;;;8.49;86.24;101266.78;5007698;28;20033;-73
2022/11/14 10:51:45;;;;;;;17.65;10.68;;;;;;;8.69;85.50;101262.59;5043799;28;20040;-71
2022/11/14 10:54:38;;;;;;;17.92;11.23;;;;;;;8.81;86.40;101272.16;5044879;28;20424;-71
2022/11/14 10:57:17;;;;;;;18.38;11.07;;;;;;;8.92;85.32;101256.19;5040256;28;20029;-71
2022/11/14 10:59:43;;;;;;;18.02;10.73;;;;;;;8.94;84.58;101275.16;5042438;28;20033;-71
2022/11/14 11:02:09;;;;;;;19.23;10.32;;;;;;;8.93;84.66;101262.53;5043936;28;20025;-73
2022/11/14 11:04:41;;;;;;;20.55;11.25;;;;;;;9.14;84.64;101263.63;5042423;28;20384;-72
2022/11/14 11:07:07;;;;;;;20.38;11.23;;;;;;;9.19;83.84;101257.66;5041331;28;20122;-72
2022/11/14 11:12:35;;;;;;;17.67;11.85;;;;;;;9.15;84.79;101245.34;5043268;28;20183;-72
2022/11/14 11:15:17;;;;;;;16.95;11.30;;;;;;;9.33;83.68;101237.72;5044643;28;20021;-72
2022/11/14 11:18:03;;;;;;;19.30;11.40;;;;;;;9.34;82.84;101234.00;5043390;28;20067;-71